sensor_id;sensor_type;location;lat;lon;timestamp;P1;durP1;ratioP1;P2;durP2;ratioP2
21810;SDS011;11067;48.788;9.208;2023-09-07T00:00:31;9.73;;;4.60;;
21810;SDS011;11067;48.788;9.208;2023-09-07T00:02:57;5.93;;;4.40;;
21810;SDS011;11067;48.788;9.208;2023-09-07T00:05:22;6.40;;;4.40;;
21810;SDS011;11067;48.788;9.208;2023-09-07T00:07:48;8.23;;;4.83;;
21810;SDS011;11067;48.788;9.208;2023-09-07T00:10:13;5.88;;;4.68;;
21810;SDS011;11067;48.788;9.208;2023-09-07T00:12:40;8.25;;;4.85;;
21810;SDS011;11067;48.788;9.208;2023-09-07T00:15:05;9.17;;;5.37;;
21810;SDS011;11067;48.788;9.208;2023-09-07T00:17:31;7.72;;;4.72;;
21810;SDS011;11067;48.788;9.208;2023-09-07T00:19:57;6.27;;;4.77;;
21810;SDS011;11067;48.788;9.208;2023-09-07T00:22:23;7.70;;;4.43;;
21810;SDS011;11067;48.788;9.208;2023-09-07T00:24:50;7.85;;;5.03;;
21810;SDS011;11067;48.788;9.208;2023-09-07T00:27:16;6.70;;;4.50;;
21810;SDS011;11067;48.788;9.208;2023-09-07T00:29:41;7.07;;;5.07;;
21810;SDS011;11067;48.788;9.208;2023-09-07T00:32:07;7.67;;;5.20;;
21810;SDS011;11067;48.788;9.208;2023-09-07T00:34:34;8.38;;;5.07;;
21810;SDS011;11067;48.788;9.208;2023-09-07T00:37:00;7.85;;;4.90;;
21810;SDS011;11067;48.788;9.208;2023-09-07T00:39:25;7.18;;;5.00;;
21810;SDS011;11067;48.788;9.208;2023-09-07T00:41:51;10.10;;;5.40;;
21810;SDS011;11067;48.788;9.208;2023-09-07T00:44:16;12.67;;;5.60;;
21810;SDS011;11067;48.788;9.208;2023-09-07T00:46:42;8.40;;;5.20;;
21810;SDS011;11067;48.788;9.208;2023-09-07T00:49:09;7.97;;;5.03;;
21810;SDS011;11067;48.788;9.208;2023-09-07T00:51:36;8.50;;;4.60;;
21810;SDS011;11067;48.788;9.208;2023-09-07T00:54:02;8.10;;;4.88;;
21810;SDS011;11067;48.788;9.208;2023-09-07T00:56:28;9.60;;;4.73;;
21810;SDS011;11067;48.788;9.208;2023-09-07T00:58:54;7.10;;;4.73;;
21810;SDS011;11067;48.788;9.208;2023-09-07T01:01:22;6.28;;;4.80;;
21810;SDS011;11067;48.788;9.208;2023-09-07T01:03:48;10.65;;;4.75;;
21810;SDS011;11067;48.788;9.208;2023-09-07T01:08:58;5.75;;;4.53;;
21810;SDS011;11067;48.788;9.208;2023-09-07T01:11:35;6.22;;;4.93;;
21810;SDS011;11067;48.788;9.208;2023-09-07T01:14:02;6.40;;;5.13;;
21810;SDS011;11067;48.788;9.208;2023-09-07T01:16:29;6.93;;;4.70;;
21810;SDS011;11067;48.788;9.208;2023-09-07T01:18:55;6.15;;;4.60;;
21810;SDS011;11067;48.788;9.208;2023-09-07T01:21:22;6.47;;;4.63;;
21810;SDS011;11067;48.788;9.208;2023-09-07T01:23:48;7.32;;;5.20;;
21810;SDS011;11067;48.788;9.208;2023-09-07T01:26:14;6.28;;;5.05;;
21810;SDS011;11067;48.788;9.208;2023-09-07T01:28:40;7.35;;;5.03;;
21810;SDS011;11067;48.788;9.208;2023-09-07T01:31:06;6.73;;;4.83;;
21810;SDS011;11067;48.788;9.208;2023-09-07T01:33:32;7.77;;;5.00;;
21810;SDS011;11067;48.788;9.208;2023-09-07T01:35:58;7.65;;;5.13;;
21810;SDS011;11067;48.788;9.208;2023-09-07T01:38:23;7.30;;;4.77;;
21810;SDS011;11067;48.788;9.208;2023-09-07T01:40:49;8.75;;;5.05;;
21810;SDS011;11067;48.788;9.208;2023-09-07T01:43:14;8.37;;;4.80;;
21810;SDS011;11067;48.788;9.208;2023-09-07T01:45:40;6.30;;;4.30;;
21810;SDS011;11067;48.788;9.208;2023-09-07T01:48:07;12.40;;;5.30;;
21810;SDS011;11067;48.788;9.208;2023-09-07T01:50:36;10.07;;;5.18;;
21810;SDS011;11067;48.788;9.208;2023-09-07T01:53:02;8.97;;;5.00;;
21810;SDS011;11067;48.788;9.208;2023-09-07T01:55:29;8.57;;;4.73;;
21810;SDS011;11067;48.788;9.208;2023-09-07T01:57:55;5.50;;;4.63;;
21810;SDS011;11067;48.788;9.208;2023-09-07T02:00:21;10.53;;;5.07;;
21810;SDS011;11067;48.788;9.208;2023-09-07T02:02:46;13.30;;;4.82;;
21810;SDS011;11067;48.788;9.208;2023-09-07T02:05:12;7.17;;;5.07;;
21810;SDS011;11067;48.788;9.208;2023-09-07T02:07:37;6.53;;;4.35;;
21810;SDS011;11067;48.788;9.208;2023-09-07T02:10:03;9.27;;;4.88;;
21810;SDS011;11067;48.788;9.208;2023-09-07T02:12:29;8.80;;;5.15;;
21810;SDS011;11067;48.788;9.208;2023-09-07T02:14:55;6.77;;;4.93;;
21810;SDS011;11067;48.788;9.208;2023-09-07T02:17:21;6.27;;;4.90;;
21810;SDS011;11067;48.788;9.208;2023-09-07T02:19:46;8.30;;;5.00;;
21810;SDS011;11067;48.788;9.208;2023-09-07T02:22:12;7.18;;;4.82;;
21810;SDS011;11067;48.788;9.208;2023-09-07T02:24:38;9.02;;;4.80;;
21810;SDS011;11067;48.788;9.208;2023-09-07T02:27:03;7.67;;;4.67;;
21810;SDS011;11067;48.788;9.208;2023-09-07T02:29:29;6.60;;;4.55;;
21810;SDS011;11067;48.788;9.208;2023-09-07T02:31:54;9.25;;;4.80;;
21810;SDS011;11067;48.788;9.208;2023-09-07T02:34:21;6.97;;;4.72;;
21810;SDS011;11067;48.788;9.208;2023-09-07T02:36:47;9.20;;;4.97;;
21810;SDS011;11067;48.788;9.208;2023-09-07T02:39:12;7.82;;;4.88;;
21810;SDS011;11067;48.788;9.208;2023-09-07T02:41:38;6.35;;;4.75;;
21810;SDS011;11067;48.788;9.208;2023-09-07T02:44:04;9.88;;;5.05;;
21810;SDS011;11067;48.788;9.208;2023-09-07T02:46:30;7.53;;;4.72;;
21810;SDS011;11067;48.788;9.208;2023-09-07T02:48:56;8.90;;;4.70;;
21810;SDS011;11067;48.788;9.208;2023-09-07T02:51:23;7.47;;;4.95;;
21810;SDS011;11067;48.788;9.208;2023-09-07T02:53:49;10.20;;;5.95;;
21810;SDS011;11067;48.788;9.208;2023-09-07T02:56:15;12.43;;;5.35;;
21810;SDS011;11067;48.788;9.208;2023-09-07T02:58:40;7.07;;;5.03;;
21810;SDS011;11067;48.788;9.208;2023-09-07T03:01:06;9.47;;;5.40;;
21810;SDS011;11067;48.788;9.208;2023-09-07T03:03:35;8.73;;;5.22;;
21810;SDS011;11067;48.788;9.208;2023-09-07T03:06:34;7.82;;;5.38;;
21810;SDS011;11067;48.788;9.208;2023-09-07T03:08:53;8.43;;;5.40;;
21810;SDS011;11067;48.788;9.208;2023-09-07T03:11:18;9.03;;;5.57;;
21810;SDS011;11067;48.788;9.208;2023-09-07T03:13:44;9.23;;;5.20;;
21810;SDS011;11067;48.788;9.208;2023-09-07T03:16:10;8.77;;;5.10;;
21810;SDS011;11067;48.788;9.208;2023-09-07T03:18:36;10.52;;;5.43;;
21810;SDS011;11067;48.788;9.208;2023-09-07T03:21:02;9.73;;;6.00;;
21810;SDS011;11067;48.788;9.208;2023-09-07T03:23:28;11.18;;;6.07;;
21810;SDS011;11067;48.788;9.208;2023-09-07T03:25:55;11.30;;;6.75;;
21810;SDS011;11067;48.788;9.208;2023-09-07T03:28:21;12.68;;;6.25;;
21810;SDS011;11067;48.788;9.208;2023-09-07T03:30:47;9.68;;;6.07;;
21810;SDS011;11067;48.788;9.208;2023-09-07T03:33:12;12.27;;;5.83;;
21810;SDS011;11067;48.788;9.208;2023-09-07T03:35:38;9.13;;;6.00;;
21810;SDS011;11067;48.788;9.208;2023-09-07T03:38:03;8.90;;;5.93;;
21810;SDS011;11067;48.788;9.208;2023-09-07T03:40:29;10.88;;;6.53;;
21810;SDS011;11067;48.788;9.208;2023-09-07T03:42:55;9.45;;;6.13;;
21810;SDS011;11067;48.788;9.208;2023-09-07T03:45:20;12.40;;;6.03;;
21810;SDS011;11067;48.788;9.208;2023-09-07T03:47:46;12.32;;;6.32;;
21810;SDS011;11067;48.788;9.208;2023-09-07T03:50:11;11.67;;;6.57;;
21810;SDS011;11067;48.788;9.208;2023-09-07T03:52:37;15.77;;;6.73;;
21810;SDS011;11067;48.788;9.208;2023-09-07T03:55:03;13.40;;;6.22;;
21810;SDS011;11067;48.788;9.208;2023-09-07T03:57:28;10.63;;;6.15;;
21810;SDS011;11067;48.788;9.208;2023-09-07T03:59:54;11.70;;;6.57;;
21810;SDS011;11067;48.788;9.208;2023-09-07T04:02:21;11.00;;;5.97;;
21810;SDS011;11067;48.788;9.208;2023-09-07T04:04:48;8.40;;;5.90;;
21810;SDS011;11067;48.788;9.208;2023-09-07T04:07:14;7.65;;;5.53;;
21810;SDS011;11067;48.788;9.208;2023-09-07T04:09:40;10.27;;;6.07;;
21810;SDS011;11067;48.788;9.208;2023-09-07T04:12:05;7.72;;;5.55;;
21810;SDS011;11067;48.788;9.208;2023-09-07T04:14:31;8.60;;;5.70;;
21810;SDS011;11067;48.788;9.208;2023-09-07T04:16:57;11.10;;;6.00;;
21810;SDS011;11067;48.788;9.208;2023-09-07T04:19:23;7.18;;;5.45;;
21810;SDS011;11067;48.788;9.208;2023-09-07T04:21:49;11.82;;;5.95;;
21810;SDS011;11067;48.788;9.208;2023-09-07T04:24:14;11.23;;;5.70;;
21810;SDS011;11067;48.788;9.208;2023-09-07T04:26:40;9.03;;;6.27;;
21810;SDS011;11067;48.788;9.208;2023-09-07T04:29:06;9.48;;;5.90;;
21810;SDS011;11067;48.788;9.208;2023-09-07T04:31:33;10.40;;;6.10;;
21810;SDS011;11067;48.788;9.208;2023-09-07T04:33:58;9.50;;;5.95;;
21810;SDS011;11067;48.788;9.208;2023-09-07T04:36:25;10.30;;;6.45;;
21810;SDS011;11067;48.788;9.208;2023-09-07T04:38:50;9.40;;;5.93;;
21810;SDS011;11067;48.788;9.208;2023-09-07T04:41:16;12.67;;;6.03;;
21810;SDS011;11067;48.788;9.208;2023-09-07T04:43:41;10.03;;;6.23;;
21810;SDS011;11067;48.788;9.208;2023-09-07T04:46:11;9.25;;;6.15;;
21810;SDS011;11067;48.788;9.208;2023-09-07T04:48:37;7.97;;;5.70;;
21810;SDS011;11067;48.788;9.208;2023-09-07T04:51:04;9.60;;;6.47;;
21810;SDS011;11067;48.788;9.208;2023-09-07T04:53:32;10.43;;;6.03;;
21810;SDS011;11067;48.788;9.208;2023-09-07T04:55:59;8.65;;;5.78;;
21810;SDS011;11067;48.788;9.208;2023-09-07T04:58:26;10.45;;;6.20;;
21810;SDS011;11067;48.788;9.208;2023-09-07T05:00:51;10.70;;;6.35;;
21810;SDS011;11067;48.788;9.208;2023-09-07T05:03:17;9.87;;;6.20;;
21810;SDS011;11067;48.788;9.208;2023-09-07T05:05:42;9.57;;;5.80;;
21810;SDS011;11067;48.788;9.208;2023-09-07T05:08:11;8.10;;;5.95;;
21810;SDS011;11067;48.788;9.208;2023-09-07T05:10:37;10.52;;;5.32;;
21810;SDS011;11067;48.788;9.208;2023-09-07T05:13:03;9.32;;;6.57;;
21810;SDS011;11067;48.788;9.208;2023-09-07T05:15:29;9.13;;;5.73;;
21810;SDS011;11067;48.788;9.208;2023-09-07T05:17:54;9.50;;;5.63;;
21810;SDS011;11067;48.788;9.208;2023-09-07T05:20:20;10.18;;;5.85;;
21810;SDS011;11067;48.788;9.208;2023-09-07T05:22:46;10.43;;;5.95;;
21810;SDS011;11067;48.788;9.208;2023-09-07T05:25:12;6.93;;;5.32;;
21810;SDS011;11067;48.788;9.208;2023-09-07T05:27:38;10.02;;;5.53;;
21810;SDS011;11067;48.788;9.208;2023-09-07T05:30:04;9.43;;;5.78;;
21810;SDS011;11067;48.788;9.208;2023-09-07T05:32:31;8.73;;;5.20;;
21810;SDS011;11067;48.788;9.208;2023-09-07T05:34:57;8.88;;;5.43;;
21810;SDS011;11067;48.788;9.208;2023-09-07T05:37:22;7.77;;;4.97;;
21810;SDS011;11067;48.788;9.208;2023-09-07T05:39:48;9.15;;;5.03;;
21810;SDS011;11067;48.788;9.208;2023-09-07T05:42:14;7.97;;;5.17;;
21810;SDS011;11067;48.788;9.208;2023-09-07T05:44:39;7.73;;;5.30;;
21810;SDS011;11067;48.788;9.208;2023-09-07T05:47:05;7.65;;;5.20;;
21810;SDS011;11067;48.788;9.208;2023-09-07T05:49:31;11.13;;;5.50;;
21810;SDS011;11067;48.788;9.208;2023-09-07T05:51:56;8.13;;;5.30;;
21810;SDS011;11067;48.788;9.208;2023-09-07T05:54:22;10.00;;;4.82;;
21810;SDS011;11067;48.788;9.208;2023-09-07T05:56:48;8.30;;;4.78;;
21810;SDS011;11067;48.788;9.208;2023-09-07T05:59:13;10.60;;;5.30;;
21810;SDS011;11067;48.788;9.208;2023-09-07T06:01:39;7.40;;;5.32;;
21810;SDS011;11067;48.788;9.208;2023-09-07T06:04:05;6.72;;;5.30;;
21810;SDS011;11067;48.788;9.208;2023-09-07T06:06:31;12.60;;;5.57;;
21810;SDS011;11067;48.788;9.208;2023-09-07T06:08:57;10.30;;;6.10;;
21810;SDS011;11067;48.788;9.208;2023-09-07T06:11:25;11.13;;;5.93;;
21810;SDS011;11067;48.788;9.208;2023-09-07T06:13:51;8.00;;;5.80;;
21810;SDS011;11067;48.788;9.208;2023-09-07T06:16:17;10.00;;;6.25;;
21810;SDS011;11067;48.788;9.208;2023-09-07T06:18:43;11.25;;;5.72;;
21810;SDS011;11067;48.788;9.208;2023-09-07T06:21:08;8.93;;;5.93;;
21810;SDS011;11067;48.788;9.208;2023-09-07T06:23:34;9.93;;;6.83;;
21810;SDS011;11067;48.788;9.208;2023-09-07T06:26:00;10.45;;;6.53;;
21810;SDS011;11067;48.788;9.208;2023-09-07T06:28:26;11.98;;;7.40;;
21810;SDS011;11067;48.788;9.208;2023-09-07T06:30:52;12.73;;;7.28;;
21810;SDS011;11067;48.788;9.208;2023-09-07T06:33:18;11.70;;;6.93;;
21810;SDS011;11067;48.788;9.208;2023-09-07T06:35:43;10.95;;;6.88;;
21810;SDS011;11067;48.788;9.208;2023-09-07T06:38:09;16.37;;;7.80;;
21810;SDS011;11067;48.788;9.208;2023-09-07T06:40:35;14.30;;;7.32;;
21810;SDS011;11067;48.788;9.208;2023-09-07T06:43:00;10.30;;;7.40;;
21810;SDS011;11067;48.788;9.208;2023-09-07T06:45:30;11.13;;;7.05;;
21810;SDS011;11067;48.788;9.208;2023-09-07T06:48:02;20.02;;;7.93;;
21810;SDS011;11067;48.788;9.208;2023-09-07T06:50:28;14.43;;;7.90;;
21810;SDS011;11067;48.788;9.208;2023-09-07T06:52:54;16.30;;;7.27;;
21810;SDS011;11067;48.788;9.208;2023-09-07T06:55:19;15.73;;;7.50;;
21810;SDS011;11067;48.788;9.208;2023-09-07T06:57:45;16.17;;;7.33;;
21810;SDS011;11067;48.788;9.208;2023-09-07T07:00:10;16.77;;;7.67;;
21810;SDS011;11067;48.788;9.208;2023-09-07T07:02:37;10.88;;;7.00;;
21810;SDS011;11067;48.788;9.208;2023-09-07T07:05:04;15.90;;;7.70;;
21810;SDS011;11067;48.788;9.208;2023-09-07T07:07:30;15.70;;;6.93;;
21810;SDS011;11067;48.788;9.208;2023-09-07T07:09:56;16.88;;;7.45;;
21810;SDS011;11067;48.788;9.208;2023-09-07T07:12:22;14.82;;;7.47;;
21810;SDS011;11067;48.788;9.208;2023-09-07T07:14:48;13.57;;;7.27;;
21810;SDS011;11067;48.788;9.208;2023-09-07T07:17:16;16.48;;;6.93;;
21810;SDS011;11067;48.788;9.208;2023-09-07T07:19:41;9.55;;;5.95;;
21810;SDS011;11067;48.788;9.208;2023-09-07T07:22:08;7.87;;;5.67;;
21810;SDS011;11067;48.788;9.208;2023-09-07T07:24:34;11.25;;;5.60;;
21810;SDS011;11067;48.788;9.208;2023-09-07T07:26:59;12.18;;;6.57;;
21810;SDS011;11067;48.788;9.208;2023-09-07T07:29:25;9.03;;;6.17;;
21810;SDS011;11067;48.788;9.208;2023-09-07T07:31:50;12.25;;;5.93;;
21810;SDS011;11067;48.788;9.208;2023-09-07T07:34:16;10.37;;;5.67;;
21810;SDS011;11067;48.788;9.208;2023-09-07T07:36:41;9.20;;;6.15;;
21810;SDS011;11067;48.788;9.208;2023-09-07T07:39:07;14.90;;;6.37;;
21810;SDS011;11067;48.788;9.208;2023-09-07T07:41:32;9.38;;;5.93;;
21810;SDS011;11067;48.788;9.208;2023-09-07T07:43:58;8.57;;;6.20;;
21810;SDS011;11067;48.788;9.208;2023-09-07T07:46:23;7.00;;;5.50;;
21810;SDS011;11067;48.788;9.208;2023-09-07T07:48:49;8.57;;;5.77;;
21810;SDS011;11067;48.788;9.208;2023-09-07T07:51:15;9.67;;;5.60;;
21810;SDS011;11067;48.788;9.208;2023-09-07T07:53:40;8.05;;;5.50;;
21810;SDS011;11067;48.788;9.208;2023-09-07T07:56:13;9.10;;;5.80;;
21810;SDS011;11067;48.788;9.208;2023-09-07T07:58:39;10.75;;;6.07;;
21810;SDS011;11067;48.788;9.208;2023-09-07T08:01:12;10.00;;;6.50;;
21810;SDS011;11067;48.788;9.208;2023-09-07T08:03:39;7.97;;;6.00;;
21810;SDS011;11067;48.788;9.208;2023-09-07T08:06:05;8.32;;;6.03;;
21810;SDS011;11067;48.788;9.208;2023-09-07T08:08:31;10.32;;;5.93;;
21810;SDS011;11067;48.788;9.208;2023-09-07T08:10:56;6.80;;;5.57;;
21810;SDS011;11067;48.788;9.208;2023-09-07T08:13:23;12.60;;;6.60;;
21810;SDS011;11067;48.788;9.208;2023-09-07T08:15:49;11.25;;;6.57;;
21810;SDS011;11067;48.788;9.208;2023-09-07T08:18:14;12.20;;;6.87;;
21810;SDS011;11067;48.788;9.208;2023-09-07T08:20:40;9.60;;;6.00;;
21810;SDS011;11067;48.788;9.208;2023-09-07T08:23:06;12.88;;;6.22;;
21810;SDS011;11067;48.788;9.208;2023-09-07T08:25:33;11.25;;;6.38;;
21810;SDS011;11067;48.788;9.208;2023-09-07T08:27:59;9.65;;;6.32;;
21810;SDS011;11067;48.788;9.208;2023-09-07T08:30:25;9.90;;;6.33;;
21810;SDS011;11067;48.788;9.208;2023-09-07T08:32:50;9.68;;;5.88;;
21810;SDS011;11067;48.788;9.208;2023-09-07T08:35:16;10.13;;;5.75;;
21810;SDS011;11067;48.788;9.208;2023-09-07T08:37:42;7.60;;;5.78;;
21810;SDS011;11067;48.788;9.208;2023-09-07T08:40:08;7.13;;;5.07;;
21810;SDS011;11067;48.788;9.208;2023-09-07T08:42:36;9.65;;;5.13;;
21810;SDS011;11067;48.788;9.208;2023-09-07T08:45:02;12.30;;;5.28;;
21810;SDS011;11067;48.788;9.208;2023-09-07T08:47:31;14.20;;;5.68;;
21810;SDS011;11067;48.788;9.208;2023-09-07T08:50:01;10.00;;;5.05;;
21810;SDS011;11067;48.788;9.208;2023-09-07T08:52:28;9.33;;;5.37;;
21810;SDS011;11067;48.788;9.208;2023-09-07T08:54:54;8.80;;;5.80;;
21810;SDS011;11067;48.788;9.208;2023-09-07T08:57:23;6.57;;;4.60;;
21810;SDS011;11067;48.788;9.208;2023-09-07T08:59:49;8.95;;;5.25;;
21810;SDS011;11067;48.788;9.208;2023-09-07T09:02:15;8.15;;;5.47;;
21810;SDS011;11067;48.788;9.208;2023-09-07T09:04:41;10.65;;;4.93;;
21810;SDS011;11067;48.788;9.208;2023-09-07T09:07:07;7.43;;;4.93;;
21810;SDS011;11067;48.788;9.208;2023-09-07T09:09:32;6.30;;;4.97;;
21810;SDS011;11067;48.788;9.208;2023-09-07T09:12:08;9.90;;;5.70;;
21810;SDS011;11067;48.788;9.208;2023-09-07T09:14:34;7.23;;;4.93;;
21810;SDS011;11067;48.788;9.208;2023-09-07T09:16:59;9.82;;;5.35;;
21810;SDS011;11067;48.788;9.208;2023-09-07T09:19:32;9.50;;;5.23;;
21810;SDS011;11067;48.788;9.208;2023-09-07T09:21:58;7.03;;;5.05;;
21810;SDS011;11067;48.788;9.208;2023-09-07T09:24:24;10.15;;;5.40;;
21810;SDS011;11067;48.788;9.208;2023-09-07T09:26:50;8.83;;;5.83;;
21810;SDS011;11067;48.788;9.208;2023-09-07T09:29:15;7.97;;;5.17;;
21810;SDS011;11067;48.788;9.208;2023-09-07T09:31:41;6.65;;;5.05;;
21810;SDS011;11067;48.788;9.208;2023-09-07T09:34:08;7.63;;;5.57;;
21810;SDS011;11067;48.788;9.208;2023-09-07T09:36:34;7.22;;;5.03;;
21810;SDS011;11067;48.788;9.208;2023-09-07T09:39:00;9.40;;;5.22;;
21810;SDS011;11067;48.788;9.208;2023-09-07T09:41:28;8.18;;;4.90;;
21810;SDS011;11067;48.788;9.208;2023-09-07T09:43:58;8.70;;;4.90;;
21810;SDS011;11067;48.788;9.208;2023-09-07T09:46:25;9.73;;;5.28;;
21810;SDS011;11067;48.788;9.208;2023-09-07T09:48:52;7.88;;;5.10;;
21810;SDS011;11067;48.788;9.208;2023-09-07T09:51:20;7.50;;;4.82;;
21810;SDS011;11067;48.788;9.208;2023-09-07T09:53:47;11.40;;;5.50;;
21810;SDS011;11067;48.788;9.208;2023-09-07T09:56:14;8.70;;;5.20;;
21810;SDS011;11067;48.788;9.208;2023-09-07T09:58:40;8.27;;;5.35;;
21810;SDS011;11067;48.788;9.208;2023-09-07T10:01:05;10.20;;;5.10;;
21810;SDS011;11067;48.788;9.208;2023-09-07T10:03:33;6.90;;;5.20;;
21810;SDS011;11067;48.788;9.208;2023-09-07T10:06:09;7.40;;;5.30;;
21810;SDS011;11067;48.788;9.208;2023-09-07T10:08:34;7.80;;;5.10;;
21810;SDS011;11067;48.788;9.208;2023-09-07T10:11:00;11.25;;;5.68;;
21810;SDS011;11067;48.788;9.208;2023-09-07T10:13:34;6.33;;;5.40;;
21810;SDS011;11067;48.788;9.208;2023-09-07T10:16:03;6.78;;;5.05;;
21810;SDS011;11067;48.788;9.208;2023-09-07T10:18:36;10.48;;;6.00;;
21810;SDS011;11067;48.788;9.208;2023-09-07T10:21:03;6.63;;;5.47;;
21810;SDS011;11067;48.788;9.208;2023-09-07T10:26:05;10.05;;;5.60;;
21810;SDS011;11067;48.788;9.208;2023-09-07T10:28:34;9.60;;;5.70;;
21810;SDS011;11067;48.788;9.208;2023-09-07T10:31:03;7.40;;;5.00;;
21810;SDS011;11067;48.788;9.208;2023-09-07T10:33:30;7.80;;;5.53;;
21810;SDS011;11067;48.788;9.208;2023-09-07T10:35:56;8.77;;;5.30;;
21810;SDS011;11067;48.788;9.208;2023-09-07T10:38:22;8.20;;;5.47;;
21810;SDS011;11067;48.788;9.208;2023-09-07T10:40:54;9.82;;;5.78;;
21810;SDS011;11067;48.788;9.208;2023-09-07T10:43:22;9.38;;;5.40;;
21810;SDS011;11067;48.788;9.208;2023-09-07T10:45:51;9.33;;;5.40;;
21810;SDS011;11067;48.788;9.208;2023-09-07T10:48:17;11.02;;;5.40;;
21810;SDS011;11067;48.788;9.208;2023-09-07T10:50:45;8.97;;;5.60;;
21810;SDS011;11067;48.788;9.208;2023-09-07T10:53:12;8.15;;;5.15;;
21810;SDS011;11067;48.788;9.208;2023-09-07T10:55:39;7.82;;;5.53;;
21810;SDS011;11067;48.788;9.208;2023-09-07T10:58:06;7.60;;;5.25;;
21810;SDS011;11067;48.788;9.208;2023-09-07T11:00:33;9.65;;;5.68;;
21810;SDS011;11067;48.788;9.208;2023-09-07T11:03:09;7.83;;;5.20;;
21810;SDS011;11067;48.788;9.208;2023-09-07T11:05:36;7.82;;;5.70;;
21810;SDS011;11067;48.788;9.208;2023-09-07T11:08:03;7.78;;;5.30;;
21810;SDS011;11067;48.788;9.208;2023-09-07T11:10:33;7.55;;;5.22;;
21810;SDS011;11067;48.788;9.208;2023-09-07T11:13:05;7.57;;;5.53;;
21810;SDS011;11067;48.788;9.208;2023-09-07T11:15:32;7.93;;;4.90;;
21810;SDS011;11067;48.788;9.208;2023-09-07T11:17:59;6.03;;;5.20;;
21810;SDS011;11067;48.788;9.208;2023-09-07T11:20:30;6.50;;;5.28;;
21810;SDS011;11067;48.788;9.208;2023-09-07T11:22:56;7.88;;;4.57;;
21810;SDS011;11067;48.788;9.208;2023-09-07T11:25:22;5.40;;;4.53;;
21810;SDS011;11067;48.788;9.208;2023-09-07T11:27:47;6.38;;;4.90;;
21810;SDS011;11067;48.788;9.208;2023-09-07T11:30:13;5.40;;;4.90;;
21810;SDS011;11067;48.788;9.208;2023-09-07T11:32:38;8.83;;;5.10;;
21810;SDS011;11067;48.788;9.208;2023-09-07T11:35:05;5.30;;;4.65;;
21810;SDS011;11067;48.788;9.208;2023-09-07T11:37:34;6.63;;;4.53;;
21810;SDS011;11067;48.788;9.208;2023-09-07T11:40:00;6.15;;;4.68;;
21810;SDS011;11067;48.788;9.208;2023-09-07T11:42:26;8.00;;;4.77;;
21810;SDS011;11067;48.788;9.208;2023-09-07T11:44:51;6.45;;;4.60;;
21810;SDS011;11067;48.788;9.208;2023-09-07T11:47:17;4.80;;;4.20;;
21810;SDS011;11067;48.788;9.208;2023-09-07T11:49:42;6.03;;;4.80;;
21810;SDS011;11067;48.788;9.208;2023-09-07T11:52:08;5.70;;;4.47;;
21810;SDS011;11067;48.788;9.208;2023-09-07T11:54:33;5.85;;;4.53;;
21810;SDS011;11067;48.788;9.208;2023-09-07T11:56:59;6.10;;;4.63;;
21810;SDS011;11067;48.788;9.208;2023-09-07T11:59:25;6.87;;;4.50;;
21810;SDS011;11067;48.788;9.208;2023-09-07T12:01:50;6.47;;;4.68;;
21810;SDS011;11067;48.788;9.208;2023-09-07T12:04:16;5.70;;;4.23;;
21810;SDS011;11067;48.788;9.208;2023-09-07T12:06:41;5.03;;;4.38;;
21810;SDS011;11067;48.788;9.208;2023-09-07T12:09:07;6.95;;;4.97;;
21810;SDS011;11067;48.788;9.208;2023-09-07T12:11:34;5.20;;;4.22;;
21810;SDS011;11067;48.788;9.208;2023-09-07T12:14:00;4.77;;;4.10;;
21810;SDS011;11067;48.788;9.208;2023-09-07T12:16:26;6.07;;;3.92;;
21810;SDS011;11067;48.788;9.208;2023-09-07T12:18:52;4.90;;;4.13;;
21810;SDS011;11067;48.788;9.208;2023-09-07T12:21:18;7.18;;;4.47;;
21810;SDS011;11067;48.788;9.208;2023-09-07T12:23:44;6.00;;;4.03;;
21810;SDS011;11067;48.788;9.208;2023-09-07T12:26:09;5.40;;;3.90;;
21810;SDS011;11067;48.788;9.208;2023-09-07T12:28:35;4.10;;;3.70;;
21810;SDS011;11067;48.788;9.208;2023-09-07T12:31:01;4.75;;;4.00;;
21810;SDS011;11067;48.788;9.208;2023-09-07T12:33:27;5.38;;;3.80;;
21810;SDS011;11067;48.788;9.208;2023-09-07T12:35:55;4.32;;;3.65;;
21810;SDS011;11067;48.788;9.208;2023-09-07T12:38:20;4.60;;;3.60;;
21810;SDS011;11067;48.788;9.208;2023-09-07T12:40:49;5.78;;;3.95;;
21810;SDS011;11067;48.788;9.208;2023-09-07T12:43:15;4.17;;;3.73;;
21810;SDS011;11067;48.788;9.208;2023-09-07T12:45:40;5.83;;;4.03;;
21810;SDS011;11067;48.788;9.208;2023-09-07T12:48:06;5.23;;;4.03;;
21810;SDS011;11067;48.788;9.208;2023-09-07T12:50:32;4.05;;;3.65;;
21810;SDS011;11067;48.788;9.208;2023-09-07T12:52:58;4.50;;;3.43;;
21810;SDS011;11067;48.788;9.208;2023-09-07T12:55:23;6.50;;;3.90;;
21810;SDS011;11067;48.788;9.208;2023-09-07T12:57:49;6.63;;;4.40;;
21810;SDS011;11067;48.788;9.208;2023-09-07T13:00:15;4.15;;;3.58;;
21810;SDS011;11067;48.788;9.208;2023-09-07T13:02:41;4.47;;;3.40;;
21810;SDS011;11067;48.788;9.208;2023-09-07T13:05:07;5.00;;;4.00;;
21810;SDS011;11067;48.788;9.208;2023-09-07T13:07:33;4.22;;;3.58;;
21810;SDS011;11067;48.788;9.208;2023-09-07T13:10:00;4.80;;;3.83;;
21810;SDS011;11067;48.788;9.208;2023-09-07T13:12:29;4.50;;;3.87;;
21810;SDS011;11067;48.788;9.208;2023-09-07T13:14:58;3.92;;;3.20;;
21810;SDS011;11067;48.788;9.208;2023-09-07T13:17:23;6.33;;;3.63;;
21810;SDS011;11067;48.788;9.208;2023-09-07T13:19:49;5.82;;;4.05;;
21810;SDS011;11067;48.788;9.208;2023-09-07T13:22:15;4.97;;;3.87;;
21810;SDS011;11067;48.788;9.208;2023-09-07T13:24:40;5.37;;;3.67;;
21810;SDS011;11067;48.788;9.208;2023-09-07T13:27:06;4.43;;;3.72;;
21810;SDS011;11067;48.788;9.208;2023-09-07T13:29:32;4.83;;;3.80;;
21810;SDS011;11067;48.788;9.208;2023-09-07T13:31:58;4.83;;;3.87;;
21810;SDS011;11067;48.788;9.208;2023-09-07T13:34:24;5.13;;;3.88;;
21810;SDS011;11067;48.788;9.208;2023-09-07T13:36:50;4.97;;;3.50;;
21810;SDS011;11067;48.788;9.208;2023-09-07T13:39:15;3.93;;;3.37;;
21810;SDS011;11067;48.788;9.208;2023-09-07T13:41:41;3.93;;;3.53;;
21810;SDS011;11067;48.788;9.208;2023-09-07T13:44:06;4.68;;;3.63;;
21810;SDS011;11067;48.788;9.208;2023-09-07T13:46:32;4.80;;;3.78;;
21810;SDS011;11067;48.788;9.208;2023-09-07T13:48:58;5.65;;;3.50;;
21810;SDS011;11067;48.788;9.208;2023-09-07T13:51:24;5.07;;;3.70;;
21810;SDS011;11067;48.788;9.208;2023-09-07T13:53:51;18.35;;;11.00;;
21810;SDS011;11067;48.788;9.208;2023-09-07T13:56:17;4.33;;;3.40;;
21810;SDS011;11067;48.788;9.208;2023-09-07T13:58:43;5.20;;;3.78;;
21810;SDS011;11067;48.788;9.208;2023-09-07T14:01:09;4.20;;;3.70;;
21810;SDS011;11067;48.788;9.208;2023-09-07T14:03:34;4.50;;;3.55;;
21810;SDS011;11067;48.788;9.208;2023-09-07T14:06:00;6.60;;;3.47;;
21810;SDS011;11067;48.788;9.208;2023-09-07T14:08:26;4.90;;;3.90;;
21810;SDS011;11067;48.788;9.208;2023-09-07T14:10:52;3.93;;;3.17;;
21810;SDS011;11067;48.788;9.208;2023-09-07T14:13:18;5.50;;;3.50;;
21810;SDS011;11067;48.788;9.208;2023-09-07T14:15:43;6.87;;;3.50;;
21810;SDS011;11067;48.788;9.208;2023-09-07T14:18:09;3.65;;;3.35;;
21810;SDS011;11067;48.788;9.208;2023-09-07T14:20:35;6.13;;;3.47;;
21810;SDS011;11067;48.788;9.208;2023-09-07T14:23:01;6.57;;;3.53;;
21810;SDS011;11067;48.788;9.208;2023-09-07T14:25:27;4.00;;;3.60;;
21810;SDS011;11067;48.788;9.208;2023-09-07T14:27:52;5.03;;;3.70;;
21810;SDS011;11067;48.788;9.208;2023-09-07T14:30:18;4.68;;;3.75;;
21810;SDS011;11067;48.788;9.208;2023-09-07T14:32:44;4.27;;;3.87;;
21810;SDS011;11067;48.788;9.208;2023-09-07T14:35:14;5.63;;;3.70;;
21810;SDS011;11067;48.788;9.208;2023-09-07T14:37:40;4.53;;;3.58;;
21810;SDS011;11067;48.788;9.208;2023-09-07T14:40:06;8.17;;;4.03;;
21810;SDS011;11067;48.788;9.208;2023-09-07T14:42:32;7.53;;;4.97;;